Corona Australe — IKVF2 — position and weather

sailwx.info

Track history (hours):
 
Tides and Currents Weather Stations Pressure Air Temp Water Temp Dewpoint Dewpoint Depression Visibility Wind Speed Wind Dir Waves Ship Positions

Corona Australe

Last reported at 2017-Nov-19 02:33 UTC. Time now 2017-Nov-20 23:02 UTC.
Position N 44°16' E 013°12'.

Length 165 m; draft 7.4 m.

Type: Cargo ship. MMSI: 247257200.

Date/timePositionNaut miles runAvg speedWind from/ knotsBaromVisibWave heightAir tempDewpointWater temp
2017-Nov-19 02:33N 44°16' E 013°12'111.1
2017-Nov-19 02:29N 44°16' E 013°11'511.1
2017-Nov-19 02:00N 44°21' E 013°09'611.0
2017-Nov-19 01:30N 44°27' E 013°07'510.9
2017-Nov-19 01:00N 44°32' E 013°04'510.9
2017-Nov-19 00:30N 44°37' E 013°02'611.0
2017-Nov-19 00:00N 44°42' E 012°60'510.9
2017-Nov-18 23:30N 44°47' E 012°56'511.0
2017-Nov-18 23:00N 44°52' E 012°53'611.2
2017-Nov-18 22:30N 44°57' E 012°49'611.5
2017-Nov-18 22:00N 45°02' E 012°45'611.3
2017-Nov-18 21:30N 45°07' E 012°41'611.3
2017-Nov-18 21:00N 45°11' E 012°35'510.9
2017-Nov-18 20:31N 45°15' E 012°32'610.8
2017-Nov-18 20:00N 45°18' E 012°25'510.7
2017-Nov-18 19:30N 45°20' E 012°18'4 7.6
2017-Nov-18 19:00N 45°24' E 012°16'4 7.2
2017-Nov-18 18:30N 45°27' E 012°16'1 1.6
2017-Nov-18 18:00N 45°28' E 012°15'0 0.0
2017-Nov-18 17:29N 45°28' E 012°15'0 0.0
2017-Nov-18 17:00N 45°28' E 012°15'0 0.0
2017-Nov-18 16:24N 45°28' E 012°15'0 0.0
2017-Nov-18 16:00N 45°28' E 012°15'0 0.0
2017-Nov-18 15:30N 45°28' E 012°15'0 0.0
2017-Nov-18 14:59N 45°28' E 012°15'0 0.0
2017-Nov-18 14:30N 45°28' E 012°15'0 0.0
2017-Nov-18 14:00N 45°28' E 012°15'0 0.0
2017-Nov-18 13:30N 45°28' E 012°15'0 0.0
2017-Nov-18 12:59N 45°28' E 012°15'0 0.0
2017-Nov-18 12:29N 45°28' E 012°15'0 0.0
2017-Nov-18 12:00N 45°28' E 012°15'0 0.0
2017-Nov-18 11:29N 45°28' E 012°15'0 0.0
2017-Nov-18 10:51N 45°28' E 012°15'0 0.0
2017-Nov-18 10:29N 45°28' E 012°15'0 0.0
2017-Nov-18 10:00N 45°28' E 012°15'0 0.0
2017-Nov-18 09:30N 45°28' E 012°15'0 0.0
2017-Nov-18 09:00N 45°28' E 012°15'0 0.0
2017-Nov-18 08:29N 45°28' E 012°15'0 0.0
2017-Nov-18 07:59N 45°28' E 012°15'0 0.0
2017-Nov-18 07:29N 45°28' E 012°15'0 0.0
2017-Nov-18 07:00N 45°28' E 012°15'0 0.0
2017-Nov-18 06:30N 45°28' E 012°15'0 0.0
2017-Nov-18 06:00N 45°28' E 012°15'0 0.0
2017-Nov-18 05:30N 45°28' E 012°15'0 0.0
2017-Nov-18 04:59N 45°28' E 012°15'0 0.0
2017-Nov-18 04:29N 45°28' E 012°15'0 0.0
2017-Nov-18 03:59N 45°28' E 012°15'0 0.0
2017-Nov-18 03:29N 45°28' E 012°15'0 0.0
2017-Nov-18 02:59N 45°28' E 012°15'0 0.0
2017-Nov-18 02:29N 45°28' E 012°15'0 0.0
2017-Nov-18 01:59N 45°28' E 012°15'0 0.0
2017-Nov-18 01:29N 45°28' E 012°15'0 0.0
2017-Nov-18 01:00N 45°28' E 012°15'0 0.0
2017-Nov-18 00:29N 45°28' E 012°15'0 0.0
2017-Nov-17 23:59N 45°28' E 012°15'0 0.0
2017-Nov-17 23:29N 45°28' E 012°15'0 0.0
2017-Nov-17 22:59N 45°28' E 012°15'0 0.0
2017-Nov-17 22:29N 45°28' E 012°15'0 0.2
2017-Nov-17 21:57N 45°28' E 012°15'1 3.3
2017-Nov-17 21:30N 45°27' E 012°16'5 8.9
2017-Nov-17 21:00N 45°22' E 012°15'5 9.6
2017-Nov-17 20:30N 45°20' E 012°21'611.6
2017-Nov-17 20:00N 45°18' E 012°29'612.2
2017-Nov-17 19:30N 45°14' E 012°36'611.8
2017-Nov-17 19:00N 45°09' E 012°39'612.0
2017-Nov-17 18:30N 45°03' E 012°40'711.8
2017-Nov-17 17:56N 44°56' E 012°39'27 1.0
2017-Nov-16 14:48N 44°31' E 012°25'13 0.3
2017-Nov-14 13:54N 44°33' E 012°43'512.0
2017-Nov-14 13:30N 44°36' E 012°48'612.0
2017-Nov-14 13:00N 44°40' E 012°54'611.7
2017-Nov-14 12:30N 44°43' E 013°01'611.8
2017-Nov-14 12:00N 44°46' E 013°08'611.8
2017-Nov-14 11:30N 44°49' E 013°15'612.0
2017-Nov-14 11:00N 44°52' E 013°23'612.1
2017-Nov-14 10:31N 44°54' E 013°31'611.9
2017-Nov-14 10:01N 44°56' E 013°38'3 5.7
2017-Nov-14 09:30N 44°54' E 013°41'3 6.5
2017-Nov-14 09:01N 44°51' E 013°44'4 8.9
2017-Nov-14 08:30N 44°47' E 013°45'6 8.4
2017-Nov-14 07:48N 44°42' E 013°50'3 9.6
2017-Nov-14 07:30N 44°42' E 013°54'510.6
2017-Nov-14 07:01N 44°44' E 014°00'510.0
2017-Nov-14 06:31N 44°47' E 014°06'4 8.2
2017-Nov-14 06:00N 44°42' E 014°06'4 7.8
2017-Nov-14 05:31N 44°39' E 014°08'4 8.7
2017-Nov-14 05:01N 44°35' E 014°10'5 9.6
2017-Nov-14 04:30N 44°30' E 014°12'319 9.2
2017-Nov-12 17:46N 39°55' E 017°52'311.4
2017-Nov-12 17:28N 39°57' E 017°49'511.4
2017-Nov-12 17:00N 40°01' E 017°43'611.4
2017-Nov-12 16:30N 40°04' E 017°37'611.4
2017-Nov-12 16:00N 40°08' E 017°32'611.5
2017-Nov-12 15:31N 40°11' E 017°26'611.8
2017-Nov-12 15:00N 40°15' E 017°20'611.9
2017-Nov-12 14:30N 40°19' E 017°14'611.6
2017-Nov-12 14:00N 40°23' E 017°08'5 9.5
2017-Nov-12 13:30N 40°27' E 017°12'2 3.8
2017-Nov-12 13:00N 40°28' E 017°13'0 0.0
2017-Nov-12 12:29N 40°28' E 017°13'0 0.0
2017-Nov-12 10:50N 40°28' E 017°13'0 0.6
2017-Nov-12 10:28N 40°29' E 017°13'0 0.0
2017-Nov-12 09:58N 40°29' E 017°13'0 0.0
2017-Nov-12 09:28N 40°29' E 017°13'0 0.0
2017-Nov-12 08:58N 40°29' E 017°13'0 0.0
2017-Nov-12 08:28N 40°29' E 017°13'0 0.0
2017-Nov-12 07:58N 40°29' E 017°13'0 0.0
2017-Nov-12 07:28N 40°29' E 017°13'0 0.0
2017-Nov-12 06:58N 40°29' E 017°13'0 0.0
2017-Nov-12 06:28N 40°29' E 017°13'0 0.0
2017-Nov-12 05:58N 40°29' E 017°13'0 0.0
2017-Nov-12 05:25N 40°29' E 017°13'0 0.0
2017-Nov-12 04:58N 40°29' E 017°13'0 0.0
2017-Nov-12 04:28N 40°29' E 017°13'0 0.0
2017-Nov-12 03:58N 40°29' E 017°13'0 0.0
2017-Nov-12 03:28N 40°29' E 017°13'0 0.0
2017-Nov-12 02:58N 40°29' E 017°13'0 0.0
2017-Nov-12 02:25N 40°29' E 017°13'0 0.0
2017-Nov-12 01:58N 40°29' E 017°13'0 0.0
2017-Nov-12 01:28N 40°29' E 017°13'0 0.0
2017-Nov-12 00:58N 40°29' E 017°13'0 0.0
2017-Nov-12 00:28N 40°29' E 017°13'0 0.0
2017-Nov-11 23:58N 40°29' E 017°13'0 0.0
2017-Nov-11 23:28N 40°29' E 017°13'0 0.0
2017-Nov-11 22:58N 40°29' E 017°13'0 0.0
2017-Nov-11 22:28N 40°29' E 017°13'0 0.0
2017-Nov-11 21:58N 40°29' E 017°13'0 0.0
2017-Nov-11 21:25N 40°29' E 017°13'0 0.0
2017-Nov-11 20:58N 40°29' E 017°13'0 0.0
2017-Nov-11 20:28N 40°29' E 017°13'0 0.0
2017-Nov-11 19:58N 40°29' E 017°13'0 0.0
2017-Nov-11 19:22N 40°29' E 017°13'0 0.0
2017-Nov-11 18:58N 40°29' E 017°13'0 0.0
2017-Nov-11 18:25N 40°29' E 017°13'0 0.0
2017-Nov-11 17:58N 40°29' E 017°13'0 0.0
2017-Nov-11 17:28N 40°29' E 017°13'0 0.0
2017-Nov-11 16:58N 40°29' E 017°13'0 0.0
2017-Nov-11 16:25N 40°29' E 017°13'0 0.0
2017-Nov-11 15:58N 40°29' E 017°13'0 0.0
2017-Nov-11 15:28N 40°29' E 017°13'0 0.0
2017-Nov-11 14:58N 40°29' E 017°13'0 0.0
2017-Nov-11 14:28N 40°29' E 017°13'0 0.0
2017-Nov-11 13:58N 40°29' E 017°13'0 0.0
2017-Nov-11 13:28N 40°29' E 017°13'0 0.0
2017-Nov-11 12:58N 40°29' E 017°13'0 0.0
2017-Nov-11 12:28N 40°29' E 017°13'0 0.0
2017-Nov-11 11:58N 40°29' E 017°13'0 0.0
2017-Nov-11 11:28N 40°29' E 017°13'0 0.0
2017-Nov-11 10:55N 40°29' E 017°13'0 0.0
2017-Nov-11 10:31N 40°29' E 017°13'0 0.0
2017-Nov-11 09:55N 40°29' E 017°13'0 0.0
2017-Nov-11 09:28N 40°29' E 017°13'0 0.0
2017-Nov-11 08:52N 40°29' E 017°13'0 0.0
2017-Nov-11 08:28N 40°29' E 017°13'0 0.0
2017-Nov-11 07:58N 40°29' E 017°13'0 0.0
2017-Nov-11 07:28N 40°29' E 017°13'0 0.6
2017-Nov-11 07:00N 40°28' E 017°13'2 4.2
2017-Nov-11 06:30N 40°26' E 017°12'3 6.2
2017-Nov-11 06:00N 40°25' E 017°09'2 4.2
2017-Nov-11 05:30N 40°23' E 017°07'510.0
2017-Nov-11 05:00N 40°18' E 017°07'510.7
2017-Nov-11 04:30N 40°13' E 017°08'4 7.9
2017-Nov-11 04:00N 40°10' E 017°11'511.0
2017-Nov-11 03:30N 40°10' E 017°18'510.3
2017-Nov-11 03:00N 40°10' E 017°25'510.8
2017-Nov-11 02:30N 40°07' E 017°31'510.5
2017-Nov-11 02:00N 40°04' E 017°36'510.4
2017-Nov-11 01:30N 40°00' E 017°41'510.3
2017-Nov-11 00:59N 39°58' E 017°48'  
Track history (hours):
 
Tides and Currents Weather Stations Pressure Air Temp Water Temp Dewpoint Dewpoint Depression Visibility Wind Speed Wind Dir Waves Ship Positions

Corona Australe

Last reported at 2017-Nov-19 02:33 UTC. Time now 2017-Nov-20 23:02 UTC.
Position N 44°16' E 013°12'.

Length 165 m; draft 7.4 m.

Type: Cargo ship. MMSI: 247257200.

Date/timePositionNaut miles runAvg speedWind from/ knotsBaromVisibWave heightAir tempDewpointWater temp
2017-Nov-19 02:33N 44°16' E 013°12'111.1
2017-Nov-19 02:29N 44°16' E 013°11'511.1
2017-Nov-19 02:00N 44°21' E 013°09'611.0
2017-Nov-19 01:30N 44°27' E 013°07'510.9
2017-Nov-19 01:00N 44°32' E 013°04'510.9
2017-Nov-19 00:30N 44°37' E 013°02'611.0
2017-Nov-19 00:00N 44°42' E 012°60'510.9
2017-Nov-18 23:30N 44°47' E 012°56'511.0
2017-Nov-18 23:00N 44°52' E 012°53'611.2
2017-Nov-18 22:30N 44°57' E 012°49'611.5
2017-Nov-18 22:00N 45°02' E 012°45'611.3
2017-Nov-18 21:30N 45°07' E 012°41'611.3
2017-Nov-18 21:00N 45°11' E 012°35'510.9
2017-Nov-18 20:31N 45°15' E 012°32'610.8
2017-Nov-18 20:00N 45°18' E 012°25'510.7
2017-Nov-18 19:30N 45°20' E 012°18'4 7.6
2017-Nov-18 19:00N 45°24' E 012°16'4 7.2
2017-Nov-18 18:30N 45°27' E 012°16'1 1.6
2017-Nov-18 18:00N 45°28' E 012°15'0 0.0
2017-Nov-18 17:29N 45°28' E 012°15'0 0.0
2017-Nov-18 17:00N 45°28' E 012°15'0 0.0
2017-Nov-18 16:24N 45°28' E 012°15'0 0.0
2017-Nov-18 16:00N 45°28' E 012°15'0 0.0
2017-Nov-18 15:30N 45°28' E 012°15'0 0.0
2017-Nov-18 14:59N 45°28' E 012°15'0 0.0
2017-Nov-18 14:30N 45°28' E 012°15'0 0.0
2017-Nov-18 14:00N 45°28' E 012°15'0 0.0
2017-Nov-18 13:30N 45°28' E 012°15'0 0.0
2017-Nov-18 12:59N 45°28' E 012°15'0 0.0
2017-Nov-18 12:29N 45°28' E 012°15'0 0.0
2017-Nov-18 12:00N 45°28' E 012°15'0 0.0
2017-Nov-18 11:29N 45°28' E 012°15'0 0.0
2017-Nov-18 10:51N 45°28' E 012°15'0 0.0
2017-Nov-18 10:29N 45°28' E 012°15'0 0.0
2017-Nov-18 10:00N 45°28' E 012°15'0 0.0
2017-Nov-18 09:30N 45°28' E 012°15'0 0.0
2017-Nov-18 09:00N 45°28' E 012°15'0 0.0
2017-Nov-18 08:29N 45°28' E 012°15'0 0.0
2017-Nov-18 07:59N 45°28' E 012°15'0 0.0
2017-Nov-18 07:29N 45°28' E 012°15'0 0.0
2017-Nov-18 07:00N 45°28' E 012°15'0 0.0
2017-Nov-18 06:30N 45°28' E 012°15'0 0.0
2017-Nov-18 06:00N 45°28' E 012°15'0 0.0
2017-Nov-18 05:30N 45°28' E 012°15'0 0.0
2017-Nov-18 04:59N 45°28' E 012°15'0 0.0
2017-Nov-18 04:29N 45°28' E 012°15'0 0.0
2017-Nov-18 03:59N 45°28' E 012°15'0 0.0
2017-Nov-18 03:29N 45°28' E 012°15'0 0.0
2017-Nov-18 02:59N 45°28' E 012°15'0 0.0
2017-Nov-18 02:29N 45°28' E 012°15'0 0.0
2017-Nov-18 01:59N 45°28' E 012°15'0 0.0
2017-Nov-18 01:29N 45°28' E 012°15'0 0.0
2017-Nov-18 01:00N 45°28' E 012°15'0 0.0
2017-Nov-18 00:29N 45°28' E 012°15'0 0.0
2017-Nov-17 23:59N 45°28' E 012°15'0 0.0
2017-Nov-17 23:29N 45°28' E 012°15'0 0.0
2017-Nov-17 22:59N 45°28' E 012°15'0 0.0
2017-Nov-17 22:29N 45°28' E 012°15'0 0.2
2017-Nov-17 21:57N 45°28' E 012°15'1 3.3
2017-Nov-17 21:30N 45°27' E 012°16'5 8.9
2017-Nov-17 21:00N 45°22' E 012°15'5 9.6
2017-Nov-17 20:30N 45°20' E 012°21'611.6
2017-Nov-17 20:00N 45°18' E 012°29'612.2
2017-Nov-17 19:30N 45°14' E 012°36'611.8
2017-Nov-17 19:00N 45°09' E 012°39'612.0
2017-Nov-17 18:30N 45°03' E 012°40'711.8
2017-Nov-17 17:56N 44°56' E 012°39'27 1.0
2017-Nov-16 14:48N 44°31' E 012°25'13 0.3
2017-Nov-14 13:54N 44°33' E 012°43'512.0
2017-Nov-14 13:30N 44°36' E 012°48'612.0
2017-Nov-14 13:00N 44°40' E 012°54'611.7
2017-Nov-14 12:30N 44°43' E 013°01'611.8
2017-Nov-14 12:00N 44°46' E 013°08'611.8
2017-Nov-14 11:30N 44°49' E 013°15'612.0
2017-Nov-14 11:00N 44°52' E 013°23'612.1
2017-Nov-14 10:31N 44°54' E 013°31'611.9
2017-Nov-14 10:01N 44°56' E 013°38'3 5.7
2017-Nov-14 09:30N 44°54' E 013°41'3 6.5
2017-Nov-14 09:01N 44°51' E 013°44'4 8.9
2017-Nov-14 08:30N 44°47' E 013°45'6 8.4
2017-Nov-14 07:48N 44°42' E 013°50'3 9.6
2017-Nov-14 07:30N 44°42' E 013°54'510.6
2017-Nov-14 07:01N 44°44' E 014°00'510.0
2017-Nov-14 06:31N 44°47' E 014°06'4 8.2
2017-Nov-14 06:00N 44°42' E 014°06'4 7.8
2017-Nov-14 05:31N 44°39' E 014°08'4 8.7
2017-Nov-14 05:01N 44°35' E 014°10'5 9.6
2017-Nov-14 04:30N 44°30' E 014°12'319 9.2
2017-Nov-12 17:46N 39°55' E 017°52'311.4
2017-Nov-12 17:28N 39°57' E 017°49'511.4
2017-Nov-12 17:00N 40°01' E 017°43'611.4
2017-Nov-12 16:30N 40°04' E 017°37'611.4
2017-Nov-12 16:00N 40°08' E 017°32'611.5
2017-Nov-12 15:31N 40°11' E 017°26'611.8
2017-Nov-12 15:00N 40°15' E 017°20'611.9
2017-Nov-12 14:30N 40°19' E 017°14'611.6
2017-Nov-12 14:00N 40°23' E 017°08'5 9.5
2017-Nov-12 13:30N 40°27' E 017°12'2 3.8
2017-Nov-12 13:00N 40°28' E 017°13'0 0.0
2017-Nov-12 12:29N 40°28' E 017°13'0 0.0
2017-Nov-12 10:50N 40°28' E 017°13'0 0.6
2017-Nov-12 10:28N 40°29' E 017°13'0 0.0
2017-Nov-12 09:58N 40°29' E 017°13'0 0.0
2017-Nov-12 09:28N 40°29' E 017°13'0 0.0
2017-Nov-12 08:58N 40°29' E 017°13'0 0.0
2017-Nov-12 08:28N 40°29' E 017°13'0 0.0
2017-Nov-12 07:58N 40°29' E 017°13'0 0.0
2017-Nov-12 07:28N 40°29' E 017°13'0 0.0
2017-Nov-12 06:58N 40°29' E 017°13'0 0.0
2017-Nov-12 06:28N 40°29' E 017°13'0 0.0
2017-Nov-12 05:58N 40°29' E 017°13'0 0.0
2017-Nov-12 05:25N 40°29' E 017°13'0 0.0
2017-Nov-12 04:58N 40°29' E 017°13'0 0.0
2017-Nov-12 04:28N 40°29' E 017°13'0 0.0
2017-Nov-12 03:58N 40°29' E 017°13'0 0.0
2017-Nov-12 03:28N 40°29' E 017°13'0 0.0
2017-Nov-12 02:58N 40°29' E 017°13'0 0.0
2017-Nov-12 02:25N 40°29' E 017°13'0 0.0
2017-Nov-12 01:58N 40°29' E 017°13'0 0.0
2017-Nov-12 01:28N 40°29' E 017°13'0 0.0
2017-Nov-12 00:58N 40°29' E 017°13'0 0.0
2017-Nov-12 00:28N 40°29' E 017°13'0 0.0
2017-Nov-11 23:58N 40°29' E 017°13'0 0.0
2017-Nov-11 23:28N 40°29' E 017°13'0 0.0
2017-Nov-11 22:58N 40°29' E 017°13'0 0.0
2017-Nov-11 22:28N 40°29' E 017°13'0 0.0
2017-Nov-11 21:58N 40°29' E 017°13'0 0.0
2017-Nov-11 21:25N 40°29' E 017°13'0 0.0
2017-Nov-11 20:58N 40°29' E 017°13'0 0.0
2017-Nov-11 20:28N 40°29' E 017°13'0 0.0
2017-Nov-11 19:58N 40°29' E 017°13'0 0.0
2017-Nov-11 19:22N 40°29' E 017°13'0 0.0
2017-Nov-11 18:58N 40°29' E 017°13'0 0.0
2017-Nov-11 18:25N 40°29' E 017°13'0 0.0
2017-Nov-11 17:58N 40°29' E 017°13'0 0.0
2017-Nov-11 17:28N 40°29' E 017°13'0 0.0
2017-Nov-11 16:58N 40°29' E 017°13'0 0.0
2017-Nov-11 16:25N 40°29' E 017°13'0 0.0
2017-Nov-11 15:58N 40°29' E 017°13'0 0.0
2017-Nov-11 15:28N 40°29' E 017°13'0 0.0
2017-Nov-11 14:58N 40°29' E 017°13'0 0.0
2017-Nov-11 14:28N 40°29' E 017°13'0 0.0
2017-Nov-11 13:58N 40°29' E 017°13'0 0.0
2017-Nov-11 13:28N 40°29' E 017°13'0 0.0
2017-Nov-11 12:58N 40°29' E 017°13'0 0.0
2017-Nov-11 12:28N 40°29' E 017°13'0 0.0
2017-Nov-11 11:58N 40°29' E 017°13'0 0.0
2017-Nov-11 11:28N 40°29' E 017°13'0 0.0
2017-Nov-11 10:55N 40°29' E 017°13'0 0.0
2017-Nov-11 10:31N 40°29' E 017°13'0 0.0
2017-Nov-11 09:55N 40°29' E 017°13'0 0.0
2017-Nov-11 09:28N 40°29' E 017°13'0 0.0
2017-Nov-11 08:52N 40°29' E 017°13'0 0.0
2017-Nov-11 08:28N 40°29' E 017°13'0 0.0
2017-Nov-11 07:58N 40°29' E 017°13'0 0.0
2017-Nov-11 07:28N 40°29' E 017°13'0 0.6
2017-Nov-11 07:00N 40°28' E 017°13'2 4.2
2017-Nov-11 06:30N 40°26' E 017°12'3 6.2
2017-Nov-11 06:00N 40°25' E 017°09'2 4.2
2017-Nov-11 05:30N 40°23' E 017°07'510.0
2017-Nov-11 05:00N 40°18' E 017°07'510.7
2017-Nov-11 04:30N 40°13' E 017°08'4 7.9
2017-Nov-11 04:00N 40°10' E 017°11'511.0
2017-Nov-11 03:30N 40°10' E 017°18'510.3
2017-Nov-11 03:00N 40°10' E 017°25'510.8
2017-Nov-11 02:30N 40°07' E 017°31'510.5
2017-Nov-11 02:00N 40°04' E 017°36'510.4
2017-Nov-11 01:30N 40°00' E 017°41'510.3
2017-Nov-11 00:59N 39°58' E 017°48'  

Dump ship's entire track history